sensor_id;sensor_type;location;lat;lon;timestamp;pressure;altitude;pressure_sealevel;temperature;humidity
31062;BME280;17724;53.546;9.974;2023-06-05T00:01:06;102296.94;;;15.65;72.05
31062;BME280;17724;53.546;9.974;2023-06-05T00:05:07;102293.06;;;15.49;72.79
31062;BME280;17724;53.546;9.974;2023-06-05T00:09:09;102290.34;;;15.33;73.58
31062;BME280;17724;53.546;9.974;2023-06-05T00:13:09;102298.41;;;15.17;74.64
31062;BME280;17724;53.546;9.974;2023-06-05T00:17:10;102305.13;;;15.21;74.29
31062;BME280;17724;53.546;9.974;2023-06-05T00:21:14;102308.97;;;15.03;75.13
31062;BME280;17724;53.546;9.974;2023-06-05T00:25:19;102308.47;;;15.07;75.30
31062;BME280;17724;53.546;9.974;2023-06-05T00:29:19;102317.88;;;15.06;75.74
31062;BME280;17724;53.546;9.974;2023-06-05T00:33:20;102306.03;;;14.93;76.66
31062;BME280;17724;53.546;9.974;2023-06-05T00:37:20;102312.75;;;14.81;76.86
31062;BME280;17724;53.546;9.974;2023-06-05T00:41:21;102312.91;;;14.74;77.42
31062;BME280;17724;53.546;9.974;2023-06-05T00:45:21;102316.06;;;14.66;77.64
31062;BME280;17724;53.546;9.974;2023-06-05T00:49:22;102314.06;;;14.61;78.01
31062;BME280;17724;53.546;9.974;2023-06-05T00:53:24;102309.16;;;14.51;78.83
31062;BME280;17724;53.546;9.974;2023-06-05T00:57:26;102299.06;;;14.45;78.66
31062;BME280;17724;53.546;9.974;2023-06-05T01:01:28;102283.69;;;14.38;79.23
31062;BME280;17724;53.546;9.974;2023-06-05T01:05:29;102290.81;;;14.34;79.39
31062;BME280;17724;53.546;9.974;2023-06-05T01:09:30;102296.47;;;14.27;80.12
31062;BME280;17724;53.546;9.974;2023-06-05T01:13:33;102292.00;;;14.38;79.18
31062;BME280;17724;53.546;9.974;2023-06-05T01:17:35;102298.31;;;14.21;79.79
31062;BME280;17724;53.546;9.974;2023-06-05T01:21:37;102293.66;;;14.10;80.99
31062;BME280;17724;53.546;9.974;2023-06-05T01:25:37;102290.06;;;14.10;80.71
31062;BME280;17724;53.546;9.974;2023-06-05T01:34:15;102288.56;;;14.19;80.06
31062;BME280;17724;53.546;9.974;2023-06-05T01:38:21;102288.22;;;14.15;80.45
31062;BME280;17724;53.546;9.974;2023-06-05T01:42:23;102273.59;;;14.03;80.85
31062;BME280;17724;53.546;9.974;2023-06-05T01:46:24;102282.72;;;14.03;81.15
31062;BME280;17724;53.546;9.974;2023-06-05T01:50:25;102289.31;;;14.14;80.97
31062;BME280;17724;53.546;9.974;2023-06-05T01:54:26;102277.78;;;14.05;80.46
31062;BME280;17724;53.546;9.974;2023-06-05T01:58:27;102287.78;;;14.07;80.88
31062;BME280;17724;53.546;9.974;2023-06-05T02:02:27;102282.84;;;14.09;80.74
31062;BME280;17724;53.546;9.974;2023-06-05T02:06:34;102273.50;;;13.98;80.92
31062;BME280;17724;53.546;9.974;2023-06-05T02:10:43;102263.03;;;13.88;81.90
31062;BME280;17724;53.546;9.974;2023-06-05T02:14:44;102262.53;;;14.03;80.87
31062;BME280;17724;53.546;9.974;2023-06-05T02:18:45;102267.97;;;13.98;81.14
31062;BME280;17724;53.546;9.974;2023-06-05T02:22:48;102261.22;;;13.94;81.29
31062;BME280;17724;53.546;9.974;2023-06-05T02:26:52;102264.75;;;13.89;81.43
31062;BME280;17724;53.546;9.974;2023-06-05T02:30:54;102263.94;;;13.77;82.19
31062;BME280;17724;53.546;9.974;2023-06-05T02:34:55;102235.56;;;13.70;81.83
31062;BME280;17724;53.546;9.974;2023-06-05T02:38:57;102257.44;;;13.71;82.38
31062;BME280;17724;53.546;9.974;2023-06-05T02:42:57;102257.91;;;13.68;82.58
31062;BME280;17724;53.546;9.974;2023-06-05T02:46:58;102251.84;;;13.43;83.94
31062;BME280;17724;53.546;9.974;2023-06-05T02:50:59;102255.31;;;13.50;83.61
31062;BME280;17724;53.546;9.974;2023-06-05T02:55:00;102256.28;;;13.44;84.04
31062;BME280;17724;53.546;9.974;2023-06-05T02:59:01;102245.84;;;13.46;84.03
31062;BME280;17724;53.546;9.974;2023-06-05T03:03:08;102236.94;;;13.44;83.81
31062;BME280;17724;53.546;9.974;2023-06-05T03:07:10;102249.34;;;13.29;84.94
31062;BME280;17724;53.546;9.974;2023-06-05T03:11:15;102247.41;;;13.42;84.53
31062;BME280;17724;53.546;9.974;2023-06-05T03:15:16;102242.34;;;13.39;84.12
31062;BME280;17724;53.546;9.974;2023-06-05T03:19:21;102236.94;;;13.32;85.28
31062;BME280;17724;53.546;9.974;2023-06-05T03:23:24;102234.91;;;13.27;84.78
31062;BME280;17724;53.546;9.974;2023-06-05T03:27:26;102242.47;;;13.32;85.20
31062;BME280;17724;53.546;9.974;2023-06-05T03:31:28;102240.41;;;13.51;84.83
31062;BME280;17724;53.546;9.974;2023-06-05T03:35:31;102221.72;;;13.29;84.57
31062;BME280;17724;53.546;9.974;2023-06-05T03:39:37;102236.63;;;13.28;85.60
31062;BME280;17724;53.546;9.974;2023-06-05T03:43:37;102236.81;;;13.39;85.45
31062;BME280;17724;53.546;9.974;2023-06-05T03:47:38;102234.69;;;13.41;85.88
31062;BME280;17724;53.546;9.974;2023-06-05T03:51:41;102230.72;;;13.25;86.08
31062;BME280;17724;53.546;9.974;2023-06-05T03:55:45;102233.97;;;13.34;86.54
31062;BME280;17724;53.546;9.974;2023-06-05T03:59:55;102248.13;;;13.49;86.07
31062;BME280;17724;53.546;9.974;2023-06-05T04:03:56;102244.38;;;13.43;85.74
31062;BME280;17724;53.546;9.974;2023-06-05T04:07:57;102239.47;;;13.22;86.86
31062;BME280;17724;53.546;9.974;2023-06-05T04:11:58;102247.88;;;13.39;86.58
31062;BME280;17724;53.546;9.974;2023-06-05T04:16:00;102242.63;;;13.25;87.21
31062;BME280;17724;53.546;9.974;2023-06-05T04:20:04;102256.78;;;13.29;87.50
31062;BME280;17724;53.546;9.974;2023-06-05T04:24:06;102250.38;;;13.40;87.19
31062;BME280;17724;53.546;9.974;2023-06-05T04:28:08;102253.50;;;13.55;86.67
31062;BME280;17724;53.546;9.974;2023-06-05T04:32:10;102251.56;;;13.68;86.01
31062;BME280;17724;53.546;9.974;2023-06-05T04:36:10;102256.84;;;13.69;85.98
31062;BME280;17724;53.546;9.974;2023-06-05T04:40:12;102243.03;;;13.69;85.54
31062;BME280;17724;53.546;9.974;2023-06-05T04:44:14;102251.66;;;13.85;85.02
31062;BME280;17724;53.546;9.974;2023-06-05T04:48:17;102255.13;;;13.80;85.31
31062;BME280;17724;53.546;9.974;2023-06-05T04:52:18;102258.13;;;13.90;85.02
31062;BME280;17724;53.546;9.974;2023-06-05T04:56:22;102252.81;;;14.00;84.84
31062;BME280;17724;53.546;9.974;2023-06-05T05:00:23;102262.72;;;13.85;85.05
31062;BME280;17724;53.546;9.974;2023-06-05T05:04:24;102254.22;;;14.03;84.98
31062;BME280;17724;53.546;9.974;2023-06-05T05:08:26;102248.19;;;14.06;84.80
31062;BME280;17724;53.546;9.974;2023-06-05T05:12:28;102245.03;;;14.14;84.58
31062;BME280;17724;53.546;9.974;2023-06-05T05:16:29;102252.59;;;14.19;84.48
31062;BME280;17724;53.546;9.974;2023-06-05T05:20:30;102245.47;;;14.23;84.52
31062;BME280;17724;53.546;9.974;2023-06-05T05:24:32;102245.38;;;14.18;84.63
31062;BME280;17724;53.546;9.974;2023-06-05T05:28:33;102258.25;;;14.52;83.80
31062;BME280;17724;53.546;9.974;2023-06-05T05:32:34;102262.78;;;14.59;83.52
31062;BME280;17724;53.546;9.974;2023-06-05T05:36:35;102254.31;;;14.65;83.28
31062;BME280;17724;53.546;9.974;2023-06-05T05:40:36;102241.88;;;14.51;83.04
31062;BME280;17724;53.546;9.974;2023-06-05T05:44:37;102268.16;;;14.65;82.92
31062;BME280;17724;53.546;9.974;2023-06-05T05:48:37;102257.44;;;14.86;82.96
31062;BME280;17724;53.546;9.974;2023-06-05T05:52:38;102264.41;;;14.88;82.83
31062;BME280;17724;53.546;9.974;2023-06-05T05:56:38;102256.09;;;14.88;83.20
31062;BME280;17724;53.546;9.974;2023-06-05T06:00:39;102265.47;;;15.21;82.42
31062;BME280;17724;53.546;9.974;2023-06-05T06:04:39;102266.47;;;15.15;82.40
31062;BME280;17724;53.546;9.974;2023-06-05T06:08:40;102270.38;;;15.52;81.43
31062;BME280;17724;53.546;9.974;2023-06-05T06:12:41;102255.25;;;16.04;80.92
31062;BME280;17724;53.546;9.974;2023-06-05T06:16:42;102274.34;;;16.49;77.92
31062;BME280;17724;53.546;9.974;2023-06-05T06:20:43;102274.34;;;16.49;77.57
31062;BME280;17724;53.546;9.974;2023-06-05T06:24:44;102278.19;;;17.03;76.31
31062;BME280;17724;53.546;9.974;2023-06-05T06:28:45;102272.47;;;17.19;74.66
31062;BME280;17724;53.546;9.974;2023-06-05T06:32:45;102264.75;;;16.89;75.03
31062;BME280;17724;53.546;9.974;2023-06-05T06:36:46;102266.41;;;16.90;75.48
31062;BME280;17724;53.546;9.974;2023-06-05T06:40:46;102277.09;;;17.04;75.19
31062;BME280;17724;53.546;9.974;2023-06-05T06:44:47;102267.16;;;17.13;74.89
31062;BME280;17724;53.546;9.974;2023-06-05T06:48:47;102271.69;;;17.24;74.63
31062;BME280;17724;53.546;9.974;2023-06-05T06:52:48;102276.59;;;17.54;73.65
31062;BME280;17724;53.546;9.974;2023-06-05T06:56:48;102271.94;;;17.65;72.18
31062;BME280;17724;53.546;9.974;2023-06-05T07:00:51;102279.69;;;17.63;73.12
31062;BME280;17724;53.546;9.974;2023-06-05T07:04:52;102270.41;;;17.89;72.22
31062;BME280;17724;53.546;9.974;2023-06-05T07:08:57;102277.16;;;18.14;70.77
31062;BME280;17724;53.546;9.974;2023-06-05T07:12:57;102276.88;;;18.10;69.37
31062;BME280;17724;53.546;9.974;2023-06-05T07:16:58;102271.06;;;18.17;69.42
31062;BME280;17724;53.546;9.974;2023-06-05T07:21:00;102281.72;;;18.51;69.01
31062;BME280;17724;53.546;9.974;2023-06-05T07:25:00;102275.63;;;18.64;67.78
31062;BME280;17724;53.546;9.974;2023-06-05T07:29:02;102279.84;;;18.72;65.19
31062;BME280;17724;53.546;9.974;2023-06-05T07:33:02;102280.38;;;18.79;66.00
31062;BME280;17724;53.546;9.974;2023-06-05T07:37:04;102280.41;;;19.19;64.78
31062;BME280;17724;53.546;9.974;2023-06-05T07:41:05;102270.63;;;19.17;61.83
31062;BME280;17724;53.546;9.974;2023-06-05T07:45:06;102268.09;;;19.20;62.49
31062;BME280;17724;53.546;9.974;2023-06-05T07:49:07;102267.84;;;19.27;61.91
31062;BME280;17724;53.546;9.974;2023-06-05T07:53:09;102271.16;;;19.29;60.98
31062;BME280;17724;53.546;9.974;2023-06-05T07:57:09;102275.88;;;19.44;58.69
31062;BME280;17724;53.546;9.974;2023-06-05T08:01:11;102278.06;;;19.62;58.65
31062;BME280;17724;53.546;9.974;2023-06-05T08:05:12;102279.16;;;19.77;57.74
31062;BME280;17724;53.546;9.974;2023-06-05T08:09:13;102271.09;;;19.75;56.66
31062;BME280;17724;53.546;9.974;2023-06-05T08:13:14;102272.38;;;19.98;55.58
31062;BME280;17724;53.546;9.974;2023-06-05T08:17:15;102266.22;;;20.01;56.28
31062;BME280;17724;53.546;9.974;2023-06-05T08:21:15;102273.34;;;20.28;55.15
31062;BME280;17724;53.546;9.974;2023-06-05T08:25:17;102264.41;;;20.26;54.62
31062;BME280;17724;53.546;9.974;2023-06-05T08:29:17;102257.56;;;20.52;54.53
31062;BME280;17724;53.546;9.974;2023-06-05T08:33:21;102266.81;;;20.87;53.19
31062;BME280;17724;53.546;9.974;2023-06-05T08:37:21;102256.72;;;20.91;53.20
31062;BME280;17724;53.546;9.974;2023-06-05T08:41:22;102246.06;;;20.93;51.15
31062;BME280;17724;53.546;9.974;2023-06-05T08:45:24;102248.25;;;20.96;50.65
31062;BME280;17724;53.546;9.974;2023-06-05T08:49:26;102240.94;;;21.29;50.75
31062;BME280;17724;53.546;9.974;2023-06-05T08:53:32;102218.31;;;21.26;49.70
31062;BME280;17724;53.546;9.974;2023-06-05T08:57:35;102239.41;;;21.42;49.49
31062;BME280;17724;53.546;9.974;2023-06-05T09:01:38;102234.44;;;21.63;48.56
31062;BME280;17724;53.546;9.974;2023-06-05T09:05:38;102229.50;;;21.55;48.03
31062;BME280;17724;53.546;9.974;2023-06-05T09:09:39;102244.59;;;21.78;48.08
31062;BME280;17724;53.546;9.974;2023-06-05T09:13:45;102233.06;;;22.03;46.95
31062;BME280;17724;53.546;9.974;2023-06-05T09:17:46;102227.13;;;21.86;46.89
31062;BME280;17724;53.546;9.974;2023-06-05T09:21:54;102223.59;;;21.99;47.21
31062;BME280;17724;53.546;9.974;2023-06-05T09:25:59;102214.78;;;22.30;47.06
31062;BME280;17724;53.546;9.974;2023-06-05T09:30:03;102218.56;;;22.39;45.96
31062;BME280;17724;53.546;9.974;2023-06-05T09:34:05;102222.56;;;22.33;45.54
31062;BME280;17724;53.546;9.974;2023-06-05T09:38:25;102221.97;;;22.55;45.35
31062;BME280;17724;53.546;9.974;2023-06-05T09:42:34;102217.13;;;22.42;45.00
31062;BME280;17724;53.546;9.974;2023-06-05T09:46:34;102225.47;;;22.79;44.94
31062;BME280;17724;53.546;9.974;2023-06-05T09:50:40;102218.81;;;23.08;44.61
31062;BME280;17724;53.546;9.974;2023-06-05T09:54:42;102213.44;;;23.25;43.77
31062;BME280;17724;53.546;9.974;2023-06-05T09:58:47;102210.44;;;23.63;43.54
31062;BME280;17724;53.546;9.974;2023-06-05T10:02:48;102213.25;;;23.63;42.51
31062;BME280;17724;53.546;9.974;2023-06-05T10:06:57;102211.56;;;23.90;42.84
31062;BME280;17724;53.546;9.974;2023-06-05T10:11:00;102212.09;;;24.42;42.71
31062;BME280;17724;53.546;9.974;2023-06-05T10:15:02;102206.47;;;24.42;42.03
31062;BME280;17724;53.546;9.974;2023-06-05T10:19:03;102200.34;;;24.40;41.87
31062;BME280;17724;53.546;9.974;2023-06-05T10:23:04;102200.72;;;24.33;41.72
31062;BME280;17724;53.546;9.974;2023-06-05T10:31:45;102185.69;;;24.74;41.08
31062;BME280;17724;53.546;9.974;2023-06-05T10:36:18;102178.09;;;24.74;39.88
31062;BME280;17724;53.546;9.974;2023-06-05T10:40:25;102175.22;;;25.28;40.56
31062;BME280;17724;53.546;9.974;2023-06-05T10:44:39;102173.50;;;25.49;39.30
31062;BME280;17724;53.546;9.974;2023-06-05T10:53:41;102174.28;;;26.24;38.33
31062;BME280;17724;53.546;9.974;2023-06-05T11:06:11;102153.34;;;28.26;35.61
31062;BME280;17724;53.546;9.974;2023-06-05T11:10:13;102158.38;;;29.68;32.49
31062;BME280;17724;53.546;9.974;2023-06-05T11:14:46;102151.53;;;31.42;28.42
31062;BME280;17724;53.546;9.974;2023-06-05T11:18:47;102143.75;;;28.84;30.40
31062;BME280;17724;53.546;9.974;2023-06-05T11:26:53;102140.28;;;25.95;33.24
31062;BME280;17724;53.546;9.974;2023-06-05T11:30:53;102126.91;;;25.35;35.40
31062;BME280;17724;53.546;9.974;2023-06-05T11:34:55;102113.63;;;25.35;35.59
31062;BME280;17724;53.546;9.974;2023-06-05T11:38:58;102120.66;;;25.64;34.90
31062;BME280;17724;53.546;9.974;2023-06-05T11:43:06;102120.63;;;25.46;34.57
31062;BME280;17724;53.546;9.974;2023-06-05T11:47:22;102105.38;;;25.39;35.58
31062;BME280;17724;53.546;9.974;2023-06-05T11:51:22;102119.00;;;25.54;35.38
31062;BME280;17724;53.546;9.974;2023-06-05T11:55:23;102115.25;;;25.19;34.96
31062;BME280;17724;53.546;9.974;2023-06-05T11:59:34;102109.84;;;25.40;34.61
31062;BME280;17724;53.546;9.974;2023-06-05T12:03:35;102101.28;;;24.74;35.12
31062;BME280;17724;53.546;9.974;2023-06-05T12:07:37;102105.63;;;25.11;35.39
31062;BME280;17724;53.546;9.974;2023-06-05T12:11:39;102104.53;;;24.98;35.47
31062;BME280;17724;53.546;9.974;2023-06-05T12:15:41;102084.41;;;24.74;34.89
31062;BME280;17724;53.546;9.974;2023-06-05T12:19:41;102101.75;;;24.67;34.35
31062;BME280;17724;53.546;9.974;2023-06-05T12:23:42;102079.28;;;24.45;34.33
31062;BME280;17724;53.546;9.974;2023-06-05T12:27:42;102093.28;;;24.98;34.40
31062;BME280;17724;53.546;9.974;2023-06-05T12:31:44;102097.75;;;24.99;32.89
31062;BME280;17724;53.546;9.974;2023-06-05T12:35:46;102091.28;;;24.90;31.60
31062;BME280;17724;53.546;9.974;2023-06-05T12:39:46;102078.97;;;25.17;32.30
31062;BME280;17724;53.546;9.974;2023-06-05T12:44:04;102091.41;;;25.25;32.65
31062;BME280;17724;53.546;9.974;2023-06-05T12:48:04;102080.53;;;25.49;32.79
31062;BME280;17724;53.546;9.974;2023-06-05T12:52:06;102077.91;;;25.62;32.91
31062;BME280;17724;53.546;9.974;2023-06-05T12:56:08;102084.69;;;25.69;33.06
31062;BME280;17724;53.546;9.974;2023-06-05T13:00:11;102083.31;;;25.41;32.70
31062;BME280;17724;53.546;9.974;2023-06-05T13:04:13;102072.84;;;25.15;32.84
31062;BME280;17724;53.546;9.974;2023-06-05T13:08:14;102074.69;;;25.37;33.26
31062;BME280;17724;53.546;9.974;2023-06-05T13:12:14;102067.47;;;25.53;33.51
31062;BME280;17724;53.546;9.974;2023-06-05T13:16:15;102050.69;;;25.40;33.10
31062;BME280;17724;53.546;9.974;2023-06-05T13:20:15;102049.22;;;25.51;33.06
31062;BME280;17724;53.546;9.974;2023-06-05T13:24:17;102042.41;;;25.69;33.07
31062;BME280;17724;53.546;9.974;2023-06-05T13:28:17;102053.75;;;25.78;33.11
31062;BME280;17724;53.546;9.974;2023-06-05T13:32:18;102053.03;;;25.55;31.86
31062;BME280;17724;53.546;9.974;2023-06-05T13:36:19;102037.31;;;25.54;32.21
31062;BME280;17724;53.546;9.974;2023-06-05T13:40:19;102033.97;;;25.43;32.23
31062;BME280;17724;53.546;9.974;2023-06-05T13:44:21;102022.34;;;25.45;32.81
31062;BME280;17724;53.546;9.974;2023-06-05T13:48:21;102027.72;;;25.90;32.80
31062;BME280;17724;53.546;9.974;2023-06-05T13:52:22;102032.97;;;26.09;32.71
31062;BME280;17724;53.546;9.974;2023-06-05T13:56:23;102015.91;;;26.14;33.08
31062;BME280;17724;53.546;9.974;2023-06-05T14:00:23;102018.88;;;26.09;32.92
31062;BME280;17724;53.546;9.974;2023-06-05T14:04:24;102010.28;;;25.88;33.00
31062;BME280;17724;53.546;9.974;2023-06-05T14:08:24;102014.25;;;25.95;32.74
31062;BME280;17724;53.546;9.974;2023-06-05T14:12:26;101988.38;;;25.76;32.76
31062;BME280;17724;53.546;9.974;2023-06-05T14:16:27;102005.00;;;25.86;33.13
31062;BME280;17724;53.546;9.974;2023-06-05T14:20:28;101998.03;;;25.66;32.66
31062;BME280;17724;53.546;9.974;2023-06-05T14:24:33;101998.00;;;25.40;32.43
31062;BME280;17724;53.546;9.974;2023-06-05T14:28:33;101994.50;;;25.69;32.65
31062;BME280;17724;53.546;9.974;2023-06-05T14:32:34;101991.38;;;25.88;33.14
31062;BME280;17724;53.546;9.974;2023-06-05T14:36:35;101996.53;;;25.95;33.34
31062;BME280;17724;53.546;9.974;2023-06-05T14:40:36;101988.41;;;25.93;33.55
31062;BME280;17724;53.546;9.974;2023-06-05T14:44:36;101981.94;;;25.75;32.91
31062;BME280;17724;53.546;9.974;2023-06-05T14:48:37;101996.03;;;25.58;33.01
31062;BME280;17724;53.546;9.974;2023-06-05T14:52:37;101988.38;;;25.24;34.12
31062;BME280;17724;53.546;9.974;2023-06-05T14:56:38;101981.94;;;25.32;34.35
31062;BME280;17724;53.546;9.974;2023-06-05T15:00:38;101976.78;;;25.17;34.61
31062;BME280;17724;53.546;9.974;2023-06-05T15:04:39;101976.97;;;25.20;34.54
31062;BME280;17724;53.546;9.974;2023-06-05T15:08:39;101972.13;;;25.12;34.79
31062;BME280;17724;53.546;9.974;2023-06-05T15:12:40;101976.56;;;24.96;34.62
31062;BME280;17724;53.546;9.974;2023-06-05T15:16:41;101963.63;;;24.86;36.09
31062;BME280;17724;53.546;9.974;2023-06-05T15:20:41;101966.09;;;24.88;35.31
31062;BME280;17724;53.546;9.974;2023-06-05T15:24:42;101965.72;;;24.72;34.73
31062;BME280;17724;53.546;9.974;2023-06-05T15:28:43;101959.94;;;24.68;35.33
31062;BME280;17724;53.546;9.974;2023-06-05T15:32:43;101958.34;;;24.45;35.36
31062;BME280;17724;53.546;9.974;2023-06-05T15:36:45;101958.03;;;24.46;35.46
31062;BME280;17724;53.546;9.974;2023-06-05T15:40:46;101953.56;;;24.45;35.44
31062;BME280;17724;53.546;9.974;2023-06-05T15:44:46;101935.81;;;24.36;35.90
31062;BME280;17724;53.546;9.974;2023-06-05T15:48:47;101931.22;;;24.40;36.02
31062;BME280;17724;53.546;9.974;2023-06-05T15:52:49;101936.34;;;24.38;36.07
31062;BME280;17724;53.546;9.974;2023-06-05T15:57:08;101940.16;;;24.42;36.27
31062;BME280;17724;53.546;9.974;2023-06-05T16:01:08;101941.63;;;24.40;37.12
31062;BME280;17724;53.546;9.974;2023-06-05T16:05:09;101940.81;;;24.39;37.65
31062;BME280;17724;53.546;9.974;2023-06-05T16:09:10;101943.63;;;24.39;37.39
31062;BME280;17724;53.546;9.974;2023-06-05T16:13:11;101943.66;;;24.48;37.40
31062;BME280;17724;53.546;9.974;2023-06-05T16:17:12;101918.00;;;24.49;36.93
31062;BME280;17724;53.546;9.974;2023-06-05T16:21:12;101932.13;;;24.67;37.08
31062;BME280;17724;53.546;9.974;2023-06-05T16:25:13;101922.69;;;24.63;36.39
31062;BME280;17724;53.546;9.974;2023-06-05T16:29:14;101914.88;;;24.51;36.75
31062;BME280;17724;53.546;9.974;2023-06-05T16:33:15;101918.91;;;24.67;37.14
31062;BME280;17724;53.546;9.974;2023-06-05T16:37:15;101917.25;;;24.75;36.68
31062;BME280;17724;53.546;9.974;2023-06-05T16:41:16;101927.69;;;24.83;36.86
31062;BME280;17724;53.546;9.974;2023-06-05T16:45:17;101918.63;;;24.86;37.28
31062;BME280;17724;53.546;9.974;2023-06-05T16:49:17;101917.25;;;24.75;35.86
31062;BME280;17724;53.546;9.974;2023-06-05T16:53:18;101920.75;;;24.80;36.44
31062;BME280;17724;53.546;9.974;2023-06-05T16:57:18;101911.47;;;24.89;37.20
31062;BME280;17724;53.546;9.974;2023-06-05T17:01:19;101910.97;;;24.78;36.36
31062;BME280;17724;53.546;9.974;2023-06-05T17:05:22;101912.28;;;24.80;36.56
31062;BME280;17724;53.546;9.974;2023-06-05T17:09:22;101907.00;;;24.79;37.12
31062;BME280;17724;53.546;9.974;2023-06-05T17:13:23;101910.81;;;24.74;36.21
31062;BME280;17724;53.546;9.974;2023-06-05T17:17:23;101917.44;;;24.87;36.77
31062;BME280;17724;53.546;9.974;2023-06-05T17:21:25;101914.47;;;24.83;36.92
31062;BME280;17724;53.546;9.974;2023-06-05T17:25:25;101915.28;;;24.84;37.07
31062;BME280;17724;53.546;9.974;2023-06-05T17:29:26;101905.66;;;24.68;38.40
31062;BME280;17724;53.546;9.974;2023-06-05T17:33:26;101902.69;;;24.73;37.93
31062;BME280;17724;53.546;9.974;2023-06-05T17:37:27;101899.38;;;24.62;37.38
31062;BME280;17724;53.546;9.974;2023-06-05T17:41:28;101906.13;;;24.61;37.05
31062;BME280;17724;53.546;9.974;2023-06-05T17:45:29;101899.56;;;24.66;37.26
31062;BME280;17724;53.546;9.974;2023-06-05T17:49:31;101908.28;;;24.55;37.19
31062;BME280;17724;53.546;9.974;2023-06-05T17:53:31;101907.75;;;24.53;38.01
31062;BME280;17724;53.546;9.974;2023-06-05T17:57:32;101894.38;;;24.50;37.58
31062;BME280;17724;53.546;9.974;2023-06-05T18:01:32;101904.31;;;24.25;37.51
31062;BME280;17724;53.546;9.974;2023-06-05T18:05:33;101903.09;;;24.09;40.18
31062;BME280;17724;53.546;9.974;2023-06-05T18:09:33;101899.38;;;23.91;42.41
31062;BME280;17724;53.546;9.974;2023-06-05T18:13:37;101921.38;;;23.67;44.39
31062;BME280;17724;53.546;9.974;2023-06-05T18:17:37;101908.19;;;23.53;45.89
31062;BME280;17724;53.546;9.974;2023-06-05T18:21:38;101909.78;;;23.46;46.22
31062;BME280;17724;53.546;9.974;2023-06-05T18:25:39;101916.63;;;23.31;46.52
31062;BME280;17724;53.546;9.974;2023-06-05T18:29:40;101925.13;;;23.40;46.10
31062;BME280;17724;53.546;9.974;2023-06-05T18:33:42;101936.09;;;23.27;46.50
31062;BME280;17724;53.546;9.974;2023-06-05T18:37:43;101937.50;;;23.02;47.55
31062;BME280;17724;53.546;9.974;2023-06-05T18:41:44;101943.75;;;22.99;47.73
31062;BME280;17724;53.546;9.974;2023-06-05T18:45:47;101935.75;;;22.79;48.03
31062;BME280;17724;53.546;9.974;2023-06-05T18:49:48;101961.09;;;22.74;48.12
31062;BME280;17724;53.546;9.974;2023-06-05T18:53:48;101916.44;;;22.50;48.74
31062;BME280;17724;53.546;9.974;2023-06-05T18:57:49;101953.31;;;22.57;48.65
31062;BME280;17724;53.546;9.974;2023-06-05T19:01:49;101953.09;;;22.26;49.04
31062;BME280;17724;53.546;9.974;2023-06-05T19:05:50;101971.06;;;22.38;50.33
31062;BME280;17724;53.546;9.974;2023-06-05T19:09:51;101953.94;;;22.26;49.60
31062;BME280;17724;53.546;9.974;2023-06-05T19:13:51;101972.09;;;21.96;49.92
31062;BME280;17724;53.546;9.974;2023-06-05T19:17:52;101976.06;;;22.09;50.09
31062;BME280;17724;53.546;9.974;2023-06-05T19:21:52;101975.78;;;22.10;50.01
31062;BME280;17724;53.546;9.974;2023-06-05T19:25:53;101971.44;;;22.18;50.19
31062;BME280;17724;53.546;9.974;2023-06-05T19:29:54;101989.31;;;22.22;49.91
31062;BME280;17724;53.546;9.974;2023-06-05T19:33:55;101987.34;;;22.23;49.73
31062;BME280;17724;53.546;9.974;2023-06-05T19:37:56;101998.97;;;21.97;50.44
31062;BME280;17724;53.546;9.974;2023-06-05T19:41:56;101988.47;;;21.89;50.79
31062;BME280;17724;53.546;9.974;2023-06-05T19:45:57;101992.19;;;21.84;51.67
31062;BME280;17724;53.546;9.974;2023-06-05T19:49:57;102011.47;;;21.86;51.78
31062;BME280;17724;53.546;9.974;2023-06-05T19:53:58;101999.78;;;21.65;51.85
31062;BME280;17724;53.546;9.974;2023-06-05T19:58:00;102009.78;;;21.71;52.96
31062;BME280;17724;53.546;9.974;2023-06-05T20:02:01;102027.03;;;21.59;52.79
31062;BME280;17724;53.546;9.974;2023-06-05T20:06:02;102022.34;;;21.55;52.89
31062;BME280;17724;53.546;9.974;2023-06-05T20:10:02;102008.41;;;21.31;52.26
31062;BME280;17724;53.546;9.974;2023-06-05T20:14:03;102010.84;;;21.13;52.82
31062;BME280;17724;53.546;9.974;2023-06-05T20:18:04;102025.00;;;21.03;53.43
31062;BME280;17724;53.546;9.974;2023-06-05T20:22:04;102029.75;;;21.03;53.56
31062;BME280;17724;53.546;9.974;2023-06-05T20:26:06;102029.50;;;21.23;54.16
31062;BME280;17724;53.546;9.974;2023-06-05T20:30:11;102029.53;;;20.99;53.51
31062;BME280;17724;53.546;9.974;2023-06-05T20:34:12;102016.88;;;20.83;53.81
31062;BME280;17724;53.546;9.974;2023-06-05T20:38:13;102032.97;;;20.91;54.59
31062;BME280;17724;53.546;9.974;2023-06-05T20:42:14;102026.91;;;20.84;54.86
31062;BME280;17724;53.546;9.974;2023-06-05T20:46:16;102031.97;;;20.82;55.07
31062;BME280;17724;53.546;9.974;2023-06-05T20:50:20;102035.31;;;20.84;53.83
31062;BME280;17724;53.546;9.974;2023-06-05T20:54:21;102032.84;;;20.77;53.95
31062;BME280;17724;53.546;9.974;2023-06-05T20:58:21;102034.50;;;20.54;54.48
31062;BME280;17724;53.546;9.974;2023-06-05T21:02:23;102039.69;;;20.66;54.53
31062;BME280;17724;53.546;9.974;2023-06-05T21:06:23;102041.78;;;20.55;55.27
31062;BME280;17724;53.546;9.974;2023-06-05T21:10:24;102031.78;;;20.44;55.32
31062;BME280;17724;53.546;9.974;2023-06-05T21:14:25;102037.19;;;20.35;56.18
31062;BME280;17724;53.546;9.974;2023-06-05T21:18:26;102041.72;;;20.31;56.57
31062;BME280;17724;53.546;9.974;2023-06-05T21:22:27;102030.81;;;20.30;56.40
31062;BME280;17724;53.546;9.974;2023-06-05T21:26:27;102034.88;;;20.13;57.07
31062;BME280;17724;53.546;9.974;2023-06-05T21:30:28;102038.75;;;20.17;57.21